Current Conditions
Overcast
Conditions



Pressure
1013.88 (hPa) - 29.94 (inHG)
Visibility

6.0 (km) - 3.7 (miles)
Temperature
4  °C
Temperature
3  °C
Dewpoint
93  %
 Humidity
Wind Speed
5.8  m/s
13  mph
21  km/h
11  kts
Wind Direction
N
45°
E
90°
135°
S
180°
225°
W
270°
315°
 80°

Due East
Airport Data
EKKA
Karup Airport
Metar :EKKA 040850Z AUTO 08011KT 6000 OVC005/// 04/03 Q1014 BECMG 8000
Mon 4th March 10:50 am
Raw Metar Info
Raw METAR is the most common format in the world for the transmission of observational weather data. It is highly standardized through the International Civil Aviation Organization (ICAO), which allows it to be understood throughout most of the world.
API Info
Data Provided by
https://www.checkwx.com/weather/EKKA

Aviation Weather providing METAR, TAF, AIRMET, SIGMET and OUTLOOK Weather Reports
© Info
CSS/SVG/PHP scripts were developed by weather34.com for use in the weather34 template © 2015-2024

Guide Info provided by Metar-Wikipedia